KACV - Arcata/Eureka, California, USA
Updated: Fri, 21-Jul-2017 2:53am PDT
Clear
Clear
 Wind from calm
Wind: Calm
Temperature: 48°F , 9°C
Dew Point: 46°F , 8°C
Humidity: 94%
Barometer: 30.13 inHg , 1020.3 hPa
Clouds: Clear
Visibility: 10 miles , 16 km
2017/07/21 09:53 KACV 210953Z AUTO 00000KT 10SM CLR 09/08 A3013 RMK AO2 SLP208 T00890083

Metar display script from Saratoga-Weather.org